Time;durP1;ratioP1;P1;durP2;ratioP2;P2;SDS_P1;SDS_P2;PMS_P1;PMS_P2;Temp;Humidity;BMP_temperature;BMP_pressure;BME280_temperature;BME280_humidity;BME280_pressure;Samples;Min_cycle;Max_cycle;Signal;HPM_P1;HPM_P2
2023/09/26 00:02:23;;;;;;;25.95;12.50;;;;;;;15.08;100.00;102168.56;5066585;28;20494;-67
2023/09/26 00:04:49;;;;;;;21.90;13.05;;;;;;;15.09;100.00;102161.47;5066685;28;20025;-67
2023/09/26 00:07:14;;;;;;;23.52;13.25;;;;;;;15.08;100.00;102163.25;5067032;28;20052;-66
2023/09/26 00:09:40;;;;;;;19.55;12.10;;;;;;;15.06;100.00;102158.91;5065412;28;20036;-67
2023/09/26 00:12:05;;;;;;;22.52;12.43;;;;;;;15.02;100.00;102163.47;5066197;28;20023;-67
2023/09/26 00:14:30;;;;;;;20.63;12.30;;;;;;;15.01;100.00;102167.91;5065525;28;20029;-67
2023/09/26 00:16:56;;;;;;;22.85;13.13;;;;;;;15.02;100.00;102180.25;5066857;28;20024;-66
2023/09/26 00:19:21;;;;;;;20.45;12.30;;;;;;;15.02;100.00;102182.06;5045911;28;20064;-67
2023/09/26 00:21:47;;;;;;;24.52;13.80;;;;;;;15.00;100.00;102171.50;5046114;28;20514;-67
2023/09/26 00:24:13;;;;;;;29.17;13.18;;;;;;;15.00;100.00;102179.44;5046669;28;20075;-66
2023/09/26 00:26:38;;;;;;;22.17;13.38;;;;;;;14.99;100.00;102190.13;5051979;28;20028;-67
2023/09/26 00:29:03;;;;;;;21.85;13.45;;;;;;;14.98;100.00;102188.34;5047106;28;20058;-67
2023/09/26 00:31:29;;;;;;;25.15;13.00;;;;;;;14.98;100.00;102191.00;5048696;28;20024;-67
2023/09/26 00:33:54;;;;;;;25.02;13.27;;;;;;;14.99;100.00;102192.75;5066573;28;20078;-66
2023/09/26 00:36:19;;;;;;;22.60;13.48;;;;;;;14.96;100.00;102188.41;5048479;28;20044;-65
2023/09/26 00:38:45;;;;;;;21.17;13.05;;;;;;;14.96;100.00;102185.75;5046104;28;20040;-67
2023/09/26 00:41:11;;;;;;;26.23;13.73;;;;;;;14.95;100.00;102191.09;5055864;28;20024;-65
2023/09/26 00:43:36;;;;;;;23.27;12.30;;;;;;;14.98;100.00;102188.34;5065322;28;20029;-66
2023/09/26 00:46:04;;;;;;;21.38;12.93;;;;;;;14.97;100.00;102197.25;5065978;28;20483;-65
2023/09/26 00:48:29;;;;;;;26.65;13.88;;;;;;;14.95;100.00;102199.94;5066502;28;20070;-66
2023/09/26 00:50:55;;;;;;;23.70;13.02;;;;;;;14.85;100.00;102188.75;5046895;28;20442;-67
2023/09/26 00:53:21;;;;;;;22.88;12.60;;;;;;;14.81;100.00;102195.03;5066160;28;20032;-67
2023/09/26 00:55:49;;;;;;;22.27;13.15;;;;;;;14.77;100.00;102183.63;5047336;28;20029;-66
2023/09/26 00:58:17;;;;;;;24.57;13.10;;;;;;;14.74;100.00;102183.72;5060281;28;20415;-66
2023/09/26 01:00:43;;;;;;;24.05;13.60;;;;;;;14.72;100.00;102180.25;5033923;28;20285;-66
2023/09/26 01:03:09;;;;;;;23.80;14.13;;;;;;;14.72;100.00;102176.75;5066592;28;20037;-66
2023/09/26 01:05:36;;;;;;;23.67;13.57;;;;;;;14.71;100.00;102167.91;5066288;28;20047;-67
2023/09/26 01:08:02;;;;;;;22.83;14.27;;;;;;;14.68;100.00;102173.28;5066370;28;20037;-67
2023/09/26 01:10:28;;;;;;;20.77;13.60;;;;;;;14.66;100.00;102181.28;5054831;28;20179;-66
2023/09/26 01:12:53;;;;;;;22.00;14.25;;;;;;;14.64;100.00;102180.50;5045530;28;20108;-66
2023/09/26 01:15:32;;;;;;;23.60;13.55;;;;;;;14.62;100.00;102174.34;5012259;28;20029;-67
2023/09/26 01:17:58;;;;;;;30.30;15.75;;;;;;;14.61;100.00;102171.75;5046271;28;20086;-66
2023/09/26 01:20:24;;;;;;;21.30;13.05;;;;;;;14.59;100.00;102182.41;5063907;28;20024;-67
2023/09/26 01:22:50;;;;;;;24.52;14.45;;;;;;;14.59;100.00;102179.75;5065401;28;20037;-65
2023/09/26 01:25:16;;;;;;;25.13;14.55;;;;;;;14.57;100.00;102173.59;5065705;28;20474;-66
2023/09/26 01:27:41;;;;;;;27.20;14.48;;;;;;;14.56;100.00;102171.88;5051694;28;20504;-66
2023/09/26 01:30:08;;;;;;;28.00;15.57;;;;;;;14.57;100.00;102173.59;5050905;28;20077;-65
2023/09/26 01:32:34;;;;;;;26.92;14.68;;;;;;;14.57;100.00;102178.06;5069968;28;20030;-66
2023/09/26 01:34:59;;;;;;;31.30;15.98;;;;;;;14.59;100.00;102169.13;5069677;28;20174;-66
2023/09/26 01:37:24;;;;;;;25.88;16.10;;;;;;;14.57;100.00;102163.00;5051913;28;20041;-66
2023/09/26 01:39:50;;;;;;;26.05;17.45;;;;;;;14.61;100.00;102159.38;5050835;28;20029;-66
2023/09/26 01:42:15;;;;;;;27.85;15.85;;;;;;;14.63;100.00;102154.00;5048734;28;20029;-66
2023/09/26 01:44:40;;;;;;;26.40;17.25;;;;;;;14.61;100.00;102151.41;5048860;28;20025;-65
2023/09/26 01:47:06;;;;;;;27.00;17.88;;;;;;;14.62;100.00;102145.19;5049577;28;20017;-68
2023/09/26 01:49:32;;;;;;;25.65;17.17;;;;;;;14.59;100.00;102139.97;5031074;28;20053;-67
2023/09/26 01:51:57;;;;;;;32.33;17.23;;;;;;;14.60;100.00;102130.22;5031025;28;20051;-66
2023/09/26 01:54:22;;;;;;;31.67;18.52;;;;;;;14.59;100.00;102118.75;5049223;28;20104;-67
2023/09/26 01:56:50;;;;;;;33.00;19.70;;;;;;;14.62;100.00;102121.31;5048944;28;20032;-69
2023/09/26 01:59:16;;;;;;;37.03;21.23;;;;;;;14.63;100.00;102119.53;5049297;28;20036;-66
2023/09/26 02:01:41;;;;;;;32.92;18.95;;;;;;;14.61;100.00;102130.19;5058278;28;20542;-67
2023/09/26 02:04:06;;;;;;;30.58;18.77;;;;;;;14.59;100.00;102132.00;5050829;28;20103;-68
2023/09/26 02:06:32;;;;;;;33.53;20.50;;;;;;;14.58;100.00;102126.75;5069210;28;20024;-67
2023/09/26 02:08:57;;;;;;;32.72;20.92;;;;;;;14.58;100.00;102132.94;5068479;28;20032;-70
2023/09/26 02:11:23;;;;;;;34.80;21.10;;;;;;;14.57;100.00;102130.31;5069272;28;20051;-68
2023/09/26 02:13:48;;;;;;;35.72;20.73;;;;;;;14.56;100.00;102123.25;5068199;28;20107;-66
2023/09/26 02:16:13;;;;;;;34.13;21.75;;;;;;;14.57;100.00;102125.88;5069657;28;20025;-67
2023/09/26 02:18:39;;;;;;;34.45;21.02;;;;;;;14.57;100.00;102123.22;5059569;28;20053;-67
2023/09/26 02:21:04;;;;;;;33.08;22.42;;;;;;;14.57;100.00;102122.38;5048646;28;20090;-65
2023/09/26 02:23:29;;;;;;;41.05;23.88;;;;;;;14.55;100.00;102125.06;5030793;28;20120;-66
2023/09/26 02:25:55;;;;;;;35.20;23.80;;;;;;;14.50;100.00;102119.00;5049419;28;20028;-66
2023/09/26 02:28:21;;;;;;;33.58;22.58;;;;;;;14.45;100.00;102116.50;5063006;28;20078;-66
2023/09/26 02:30:46;;;;;;;36.38;23.05;;;;;;;14.41;100.00;102114.84;5069207;28;20094;-66
2023/09/26 02:33:11;;;;;;;37.33;23.60;;;;;;;14.37;100.00;102115.88;5036033;28;20036;-67
2023/09/26 02:35:37;;;;;;;40.88;24.23;;;;;;;14.32;100.00;102118.66;5049602;28;20112;-68
2023/09/26 02:38:02;;;;;;;37.50;22.48;;;;;;;14.29;100.00;102121.38;5049691;28;20032;-66
2023/09/26 02:40:28;;;;;;;36.75;22.98;;;;;;;14.26;100.00;102121.47;5048730;28;20617;-66
2023/09/26 02:42:53;;;;;;;38.33;23.27;;;;;;;14.26;100.00;102117.06;5048252;28;20497;-67
2023/09/26 02:45:18;;;;;;;39.55;25.00;;;;;;;14.26;100.00;102122.34;5041615;28;20547;-66
2023/09/26 02:47:44;;;;;;;43.67;27.23;;;;;;;14.26;100.00;102122.34;5029011;28;20495;-67
2023/09/26 02:50:10;;;;;;;39.13;26.13;;;;;;;14.26;100.00;102121.47;5029561;28;20036;-66
2023/09/26 02:52:36;;;;;;;42.72;26.55;;;;;;;14.26;100.00;102118.81;5028773;28;20018;-66
2023/09/26 02:55:02;;;;;;;39.03;26.55;;;;;;;14.26;100.00;102111.75;5041870;28;20028;-65
2023/09/26 02:57:27;;;;;;;39.72;25.30;;;;;;;14.28;100.00;102124.97;5047998;28;20029;-67
2023/09/26 02:59:53;;;;;;;39.70;27.23;;;;;;;14.27;100.00;102112.63;5047937;28;20670;-66
2023/09/26 03:02:18;;;;;;;42.60;27.52;;;;;;;14.30;100.00;102117.81;5048526;28;20040;-66
2023/09/26 03:04:48;;;;;;;49.08;28.90;;;;;;;14.29;100.00;102116.09;5028050;28;20464;-66
2023/09/26 03:07:14;;;;;;;36.92;24.90;;;;;;;14.34;100.00;102121.25;5028713;28;20021;-67
2023/09/26 03:09:39;;;;;;;42.95;26.63;;;;;;;14.37;100.00;102116.75;5011371;28;20028;-67
2023/09/26 03:12:06;;;;;;;41.53;26.35;;;;;;;14.40;100.00;102115.78;5035360;28;20541;-68
2023/09/26 03:14:31;;;;;;;45.53;28.45;;;;;;;14.44;100.00;102111.22;5048336;28;20060;-67
2023/09/26 03:16:57;;;;;;;39.88;27.50;;;;;;;14.48;100.00;102112.91;5048513;28;20548;-67
2023/09/26 03:19:23;;;;;;;45.35;26.83;;;;;;;14.50;100.00;102109.28;5049249;28;20025;-67
2023/09/26 03:21:51;;;;;;;36.10;24.52;;;;;;;14.53;100.00;102108.31;5048131;28;20102;-67
2023/09/26 03:24:17;;;;;;;48.22;26.42;;;;;;;14.56;100.00;102100.25;5048788;28;20118;-67
2023/09/26 03:26:43;;;;;;;40.63;25.05;;;;;;;14.59;100.00;102097.53;5031171;28;20029;-68
2023/09/26 03:29:08;;;;;;;37.83;25.38;;;;;;;14.62;100.00;102099.19;5048084;28;20025;-66
2023/09/26 03:31:34;;;;;;;35.58;23.02;;;;;;;14.64;100.00;102092.06;5030347;28;20461;-66
2023/09/26 03:33:59;;;;;;;33.72;23.42;;;;;;;14.63;100.00;102083.25;5048210;28;20032;-67
2023/09/26 03:36:25;;;;;;;34.75;22.52;;;;;;;14.63;100.00;102083.25;5048030;28;20060;-65
2023/09/26 03:38:50;;;;;;;30.00;22.05;;;;;;;14.61;100.00;102073.59;5047966;28;20056;-66
2023/09/26 03:41:15;;;;;;;33.25;22.48;;;;;;;14.59;100.00;102071.00;5048196;28;20021;-66
2023/09/26 03:43:41;;;;;;;30.63;21.52;;;;;;;14.59;100.00;102073.66;5039325;28;20382;-67
2023/09/26 03:46:07;;;;;;;36.33;23.45;;;;;;;14.57;100.00;102070.16;5050526;28;20446;-66
2023/09/26 03:48:33;;;;;;;36.00;23.05;;;;;;;14.55;100.00;102065.84;5059717;28;20047;-66
2023/09/26 03:51:13;;;;;;;36.40;22.95;;;;;;;14.55;100.00;102079.97;5015865;28;20029;-66
2023/09/26 03:53:39;;;;;;;34.70;23.10;;;;;;;14.55;100.00;102069.38;5028779;28;20088;-66
2023/09/26 03:56:05;;;;;;;28.70;20.52;;;;;;;14.57;100.00;102069.31;5028814;28;20761;-68
2023/09/26 03:58:31;;;;;;;33.10;21.88;;;;;;;14.54;100.00;102062.31;5031860;28;20061;-65
2023/09/26 04:01:15;;;;;;;29.83;21.23;;;;;;;14.53;100.00;102065.88;5068507;28;20029;-68
2023/09/26 04:03:43;;;;;;;30.85;21.58;;;;;;;14.51;100.00;102062.44;5051170;28;20455;-66
2023/09/26 04:06:09;;;;;;;35.17;21.20;;;;;;;14.53;100.00;102055.28;5051396;28;20020;-67
2023/09/26 04:08:35;;;;;;;34.20;21.35;;;;;;;14.53;100.00;102055.28;5056999;28;20025;-66
2023/09/26 04:11:00;;;;;;;32.47;22.05;;;;;;;14.51;100.00;102051.81;5043054;28;20063;-66
2023/09/26 04:13:25;;;;;;;35.38;23.10;;;;;;;14.50;100.00;102052.72;5067439;28;20016;-66
2023/09/26 04:15:52;;;;;;;33.33;22.48;;;;;;;14.49;100.00;102053.63;5068525;28;20063;-68
2023/09/26 04:18:18;;;;;;;32.75;21.00;;;;;;;14.48;100.00;102051.91;5067452;28;20078;-65
2023/09/26 04:20:44;;;;;;;42.10;20.95;;;;;;;14.49;100.00;102058.94;5030404;28;20029;-66
2023/09/26 04:23:09;;;;;;;31.30;22.10;;;;;;;14.50;100.00;102058.00;5031022;28;20033;-66
2023/09/26 04:25:35;;;;;;;32.10;22.50;;;;;;;14.48;100.00;102055.41;5048405;28;20069;-66
2023/09/26 04:28:01;;;;;;;35.40;23.33;;;;;;;14.50;100.00;102058.00;5047011;28;20025;-69
2023/09/26 04:30:27;;;;;;;42.58;24.90;;;;;;;14.49;100.00;102058.94;5048372;28;20071;-69
2023/09/26 04:32:52;;;;;;;30.88;23.05;;;;;;;14.50;100.00;102060.66;5040687;28;20064;-69
2023/09/26 04:35:18;;;;;;;40.55;22.92;;;;;;;14.49;100.00;102064.25;5019511;28;20049;-71
2023/09/26 04:37:43;;;;;;;31.00;21.00;;;;;;;14.50;100.00;102060.66;5054940;28;20035;-67
2023/09/26 04:40:10;;;;;;;33.58;21.33;;;;;;;14.51;100.00;102052.66;5042995;28;20033;-65
2023/09/26 04:42:40;;;;;;;27.95;22.67;;;;;;;14.50;100.00;102055.34;5037674;28;20112;-65
2023/09/26 04:45:06;;;;;;;31.60;21.52;;;;;;;14.48;100.00;102051.91;5038561;28;20021;-67
2023/09/26 04:47:32;;;;;;;35.95;22.25;;;;;;;14.49;100.00;102053.63;5038716;28;20053;-66
2023/09/26 04:49:57;;;;;;;30.23;21.67;;;;;;;14.47;100.00;102050.16;5035142;28;20505;-67
2023/09/26 04:52:22;;;;;;;31.40;22.25;;;;;;;14.46;100.00;102048.41;5016942;28;20021;-66
2023/09/26 04:54:50;;;;;;;30.08;21.98;;;;;;;14.47;100.00;102053.69;5019113;28;20071;-65
2023/09/26 04:57:15;;;;;;;34.10;21.70;;;;;;;14.45;100.00;102046.69;5036214;28;20025;-66
2023/09/26 04:59:41;;;;;;;31.13;20.92;;;;;;;14.43;100.00;102045.88;5040315;28;20026;-65
2023/09/26 05:02:06;;;;;;;31.73;22.70;;;;;;;14.45;100.00;102046.69;5035738;28;20032;-67
2023/09/26 05:04:32;;;;;;;31.75;21.90;;;;;;;14.44;100.00;102048.47;5052932;28;20040;-65
2023/09/26 05:06:57;;;;;;;28.88;19.50;;;;;;;14.46;100.00;102049.31;5036558;28;20017;-66
2023/09/26 05:09:23;;;;;;;33.10;20.85;;;;;;;14.50;100.00;102052.72;5041356;28;20036;-68
2023/09/26 05:11:48;;;;;;;28.92;20.45;;;;;;;14.50;100.00;102044.75;5066640;28;20135;-67
2023/09/26 05:14:13;;;;;;;30.02;21.35;;;;;;;14.50;100.00;102050.06;5052337;28;20088;-67
2023/09/26 05:16:39;;;;;;;31.08;21.70;;;;;;;14.51;100.00;102051.81;5070668;28;20047;-65
2023/09/26 05:19:04;;;;;;;30.08;22.02;;;;;;;14.52;100.00;102045.59;5069548;28;20391;-67
2023/09/26 05:21:30;;;;;;;34.88;20.85;;;;;;;14.59;100.00;102055.09;5059854;28;20067;-67
2023/09/26 05:23:55;;;;;;;32.08;22.27;;;;;;;14.54;100.00;102059.66;5049803;28;20025;-66
2023/09/26 05:26:20;;;;;;;29.08;20.73;;;;;;;14.52;100.00;102056.19;5049778;28;20104;-66
2023/09/26 05:28:46;;;;;;;33.03;21.73;;;;;;;14.50;100.00;102044.75;5049584;28;20471;-65
2023/09/26 05:31:11;;;;;;;32.30;21.85;;;;;;;14.47;100.00;102039.53;5066123;28;20068;-66
2023/09/26 05:33:37;;;;;;;31.05;19.70;;;;;;;14.44;100.00;102029.91;5069926;28;20486;-67
2023/09/26 05:36:04;;;;;;;44.88;23.48;;;;;;;14.34;100.00;102033.75;5069742;28;20104;-66
2023/09/26 05:38:29;;;;;;;29.58;21.88;;;;;;;14.36;100.00;102034.59;5070288;28;20493;-68
2023/09/26 05:40:55;;;;;;;27.33;20.95;;;;;;;14.36;100.00;102037.25;5069495;28;20107;-67
2023/09/26 05:43:20;;;;;;;30.65;20.85;;;;;;;14.33;100.00;102037.34;5051068;28;20027;-66
2023/09/26 05:45:51;;;;;;;28.95;20.65;;;;;;;14.30;100.00;102048.03;5070450;28;20651;-66
2023/09/26 05:48:16;;;;;;;31.55;20.95;;;;;;;14.27;100.00;102046.34;5050321;28;20074;-68
2023/09/26 05:50:42;;;;;;;30.67;20.27;;;;;;;14.29;100.00;102052.47;5049896;28;20025;-68
2023/09/26 05:53:07;;;;;;;30.45;20.10;;;;;;;14.26;100.00;102047.25;5049874;28;20450;-66
2023/09/26 05:55:32;;;;;;;30.83;20.45;;;;;;;14.24;100.00;102049.09;5053871;28;20078;-67
2023/09/26 05:57:58;;;;;;;28.08;20.52;;;;;;;14.24;100.00;102044.63;5067689;28;20016;-67
2023/09/26 06:00:23;;;;;;;30.70;21.30;;;;;;;14.25;100.00;102048.16;5069765;28;20021;-66
2023/09/26 06:02:48;;;;;;;29.30;21.55;;;;;;;14.32;100.00;102049.72;5069568;28;20527;-64
2023/09/26 06:05:14;;;;;;;33.50;21.17;;;;;;;14.34;100.00;102054.97;5069125;28;20097;-66
2023/09/26 06:07:41;;;;;;;34.05;22.13;;;;;;;14.36;100.00;102051.34;5069826;28;20052;-67
2023/09/26 06:10:07;;;;;;;29.95;22.00;;;;;;;14.38;100.00;102056.59;5065819;28;20049;-68
2023/09/26 06:12:33;;;;;;;32.20;22.48;;;;;;;14.41;100.00;102051.22;5040435;28;20026;-65
2023/09/26 06:14:58;;;;;;;38.35;23.15;;;;;;;14.42;100.00;102044.13;5045994;28;20023;-67
2023/09/26 06:17:23;;;;;;;32.90;24.20;;;;;;;14.43;100.00;102043.22;5047488;28;20040;-67
2023/09/26 06:19:49;;;;;;;32.15;22.58;;;;;;;14.43;100.00;102033.50;5036082;28;20041;-67
2023/09/26 06:22:14;;;;;;;25.23;20.58;;;;;;;14.45;100.00;102028.13;5037175;28;20033;-67
2023/09/26 06:24:40;;;;;;;29.33;20.45;;;;;;;14.45;100.00;102025.47;5038245;28;20021;-66
2023/09/26 06:27:05;;;;;;;27.60;21.17;;;;;;;14.48;100.00;102028.03;5037835;28;20037;-70
2023/09/26 06:29:31;;;;;;;27.58;19.02;;;;;;;14.51;100.00;102035.91;5028694;28;20018;-68
2023/09/26 06:31:56;;;;;;;30.60;20.15;;;;;;;14.52;100.00;102033.19;5028062;28;20033;-69
2023/09/26 06:34:21;;;;;;;26.75;19.35;;;;;;;14.56;100.00;102033.06;5033694;28;20017;-69
2023/09/26 06:36:50;;;;;;;27.35;19.35;;;;;;;14.60;100.00;102037.41;5048092;28;20025;-69
2023/09/26 06:39:15;;;;;;;30.30;20.27;;;;;;;14.68;100.00;102045.97;5048129;28;20025;-68
2023/09/26 06:41:41;;;;;;;27.17;19.63;;;;;;;14.79;100.00;102045.66;5047940;28;20399;-69
2023/09/26 06:44:06;;;;;;;32.00;21.33;;;;;;;14.82;100.00;102034.94;5048118;28;20070;-68
2023/09/26 06:46:32;;;;;;;28.23;19.77;;;;;;;14.94;100.00;102043.41;5048625;28;20116;-69
2023/09/26 06:48:57;;;;;;;26.88;20.17;;;;;;;15.01;100.00;102034.31;5048474;28;20036;-69
2023/09/26 06:51:23;;;;;;;27.05;19.58;;;;;;;15.10;100.00;102028.72;5037633;28;20036;-69
2023/09/26 06:53:49;;;;;;;29.80;18.60;;;;;;;15.20;100.00;102033.72;5057503;28;20024;-69
2023/09/26 06:56:14;;;;;;;25.30;17.13;;;;;;;15.24;100.00;102027.38;5032436;28;20083;-67
2023/09/26 06:58:40;;;;;;;32.38;18.35;;;;;;;15.31;100.00;102033.31;5038191;28;20205;-69
2023/09/26 07:01:15;;;;;;;25.20;17.67;;;;;;;15.38;100.00;102021.59;5037713;28;20056;-69
2023/09/26 07:03:41;;;;;;;20.70;16.13;;;;;;;15.43;100.00;102019.63;5036196;28;20030;-68
2023/09/26 07:06:10;;;;;;;24.08;16.42;;;;;;;15.45;100.00;102023.09;5036269;28;20040;-70
2023/09/26 07:08:37;;;;;;;19.98;16.58;;;;;;;15.50;100.00;102014.97;5039516;28;20040;-70
2023/09/26 07:11:06;;;;;;;32.55;16.08;;;;;;;15.53;100.00;102014.81;5038507;28;20905;-70
2023/09/26 07:13:35;;;;;;;19.15;14.13;;;;;;;15.59;100.00;102019.94;5037629;28;20111;-70
2023/09/26 07:16:05;;;;;;;21.08;15.00;;;;;;;15.72;100.00;102027.47;5042565;28;20115;-68
2023/09/26 07:18:31;;;;;;;20.63;15.00;;;;;;;15.79;100.00;102027.19;5048084;28;20021;-68
2023/09/26 07:20:59;;;;;;;19.75;14.02;;;;;;;15.84;100.00;102029.66;5062195;28;20028;-68
2023/09/26 07:23:25;;;;;;;22.13;13.23;;;;;;;15.95;100.00;102029.25;5066454;28;20071;-67
2023/09/26 07:25:50;;;;;;;18.90;13.25;;;;;;;16.06;100.00;102022.69;5066621;28;20029;-69
2023/09/26 07:28:16;;;;;;;20.83;13.00;;;;;;;16.17;100.00;102021.34;5066033;28;20135;-65
2023/09/26 07:30:44;;;;;;;17.58;11.90;;;;;;;16.27;100.00;102023.66;5057623;28;20705;-67
2023/09/26 07:33:09;;;;;;;15.15;12.38;;;;;;;16.42;100.00;102024.84;5065995;28;20024;-69
2023/09/26 07:35:35;;;;;;;18.35;11.60;;;;;;;16.56;100.00;102034.94;5065756;28;20536;-68
2023/09/26 07:38:00;;;;;;;18.20;11.55;;;;;;;16.67;100.00;102040.69;5066265;28;20542;-65
2023/09/26 07:40:25;;;;;;;14.93;10.73;;;;;;;16.80;100.00;102040.19;5066783;28;20052;-68
2023/09/26 07:42:51;;;;;;;14.48;10.52;;;;;;;16.90;100.00;102046.88;5063799;28;20032;-67
2023/09/26 07:45:16;;;;;;;15.57;10.45;;;;;;;16.98;100.00;102040.34;5046760;28;20033;-68
2023/09/26 07:47:45;;;;;;;18.58;11.05;;;;;;;17.16;100.00;102033.41;5047554;28;20021;-67
2023/09/26 07:50:10;;;;;;;18.90;10.63;;;;;;;17.19;100.00;102033.28;5028436;28;20036;-66
2023/09/26 07:52:36;;;;;;;19.38;10.88;;;;;;;17.31;100.00;102031.91;5029330;28;20041;-67
2023/09/26 07:55:02;;;;;;;15.93;10.20;;;;;;;17.50;100.00;102031.06;5046437;28;20024;-67
2023/09/26 07:57:27;;;;;;;15.93;9.98;;;;;;;17.59;100.00;102037.78;5048468;28;20037;-67
2023/09/26 07:59:53;;;;;;;13.25;10.27;;;;;;;17.70;100.00;102034.66;5066665;28;20655;-68
2023/09/26 08:02:18;;;;;;;12.88;9.95;;;;;;;17.80;100.00;102030.63;5048093;28;20036;-67
2023/09/26 08:04:44;;;;;;;15.15;10.00;;;;;;;17.86;100.00;102021.47;5028921;28;20036;-66
2023/09/26 08:07:09;;;;;;;14.25;9.48;;;;;;;17.87;100.00;102017.88;5047877;28;20080;-69
2023/09/26 08:09:35;;;;;;;15.45;10.15;;;;;;;17.89;100.00;102018.66;5046634;28;20074;-67
2023/09/26 08:12:00;;;;;;;16.25;9.48;;;;;;;17.87;100.00;102021.41;5046205;28;20033;-69
2023/09/26 08:14:25;;;;;;;13.10;9.55;;;;;;;17.91;100.00;102027.47;5047259;28;20486;-69
2023/09/26 08:16:51;;;;;;;15.15;9.05;;;;;;;17.89;100.00;102019.53;5046935;28;20040;-68
2023/09/26 08:19:16;;;;;;;17.65;9.77;;;;;;;17.83;100.00;102019.81;5060108;28;20063;-65
2023/09/26 08:21:43;;;;;;;14.90;9.90;;;;;;;17.71;100.00;102020.38;5067123;28;20044;-66
2023/09/26 08:24:09;;;;;;;12.35;9.80;;;;;;;17.86;100.00;102025.00;5067518;28;20099;-65
2023/09/26 08:26:34;;;;;;;12.65;10.27;;;;;;;17.92;100.00;102021.19;5065746;28;20120;-68
2023/09/26 08:28:59;;;;;;;14.13;9.60;;;;;;;17.97;100.00;102029.00;5049172;28;20086;-66
2023/09/26 08:31:25;;;;;;;13.20;10.15;;;;;;;18.09;100.00;102019.53;5067680;28;20035;-68
2023/09/26 08:33:50;;;;;;;13.90;10.05;;;;;;;18.09;100.00;102023.06;5067296;28;20386;-67
2023/09/26 08:36:18;;;;;;;14.32;10.10;;;;;;;18.08;100.00;102017.78;5064259;28;20035;-69
2023/09/26 08:38:44;;;;;;;25.05;9.70;;;;;;;18.16;100.00;102029.00;5071230;28;20020;-66
2023/09/26 08:41:10;;;;;;;14.65;9.93;;;;;;;18.18;100.00;102035.13;5070740;28;20024;-69
2023/09/26 08:43:36;;;;;;;18.15;9.82;;;;;;;18.19;100.00;102035.06;5070025;28;20085;-67
2023/09/26 08:46:02;;;;;;;13.20;8.88;;;;;;;18.31;100.00;102022.09;5035966;28;20029;-68
2023/09/26 08:48:27;;;;;;;11.77;9.35;;;;;;;18.28;100.00;102025.78;5032531;28;20036;-68
2023/09/26 08:50:53;;;;;;;13.23;8.82;;;;;;;18.41;100.00;102015.38;5050366;28;20044;-68
2023/09/26 08:53:18;;;;;;;15.18;8.60;;;;;;;18.57;100.00;102009.25;5050026;28;20032;-68
2023/09/26 08:55:45;;;;;;;16.45;9.30;;;;;;;18.75;100.00;102001.31;5032741;28;20374;-68
2023/09/26 08:58:11;;;;;;;13.75;8.43;;;;;;;18.72;100.00;102007.63;5049964;28;20025;-70
2023/09/26 09:00:36;;;;;;;16.40;8.98;;;;;;;18.66;100.00;102007.97;5050886;28;20027;-68
2023/09/26 09:03:01;;;;;;;17.23;8.85;;;;;;;18.46;100.00;102011.59;5050010;28;20021;-70
2023/09/26 09:05:27;;;;;;;11.13;8.30;;;;;;;18.58;100.00;102016.34;5049920;28;20112;-68
2023/09/26 09:07:52;;;;;;;15.07;7.97;;;;;;;18.60;100.00;102011.78;5050756;28;20049;-69
2023/09/26 09:10:17;;;;;;;12.45;6.90;;;;;;;18.61;100.00;102007.31;5049755;28;20124;-68
2023/09/26 09:12:47;;;;;;;13.63;8.15;;;;;;;18.57;100.00;102009.25;5049380;28;20083;-68
2023/09/26 09:15:15;;;;;;;15.90;7.95;;;;;;;18.49;100.00;102008.78;5050693;28;20059;-72
2023/09/26 09:17:45;;;;;;;11.52;6.90;;;;;;;18.54;100.00;102006.75;5049709;28;20064;-66
2023/09/26 09:20:13;;;;;;;13.88;7.38;;;;;;;18.56;100.00;102012.88;5050703;28;20021;-68
2023/09/26 09:22:38;;;;;;;11.20;7.60;;;;;;;18.52;100.00;102006.84;5049949;28;20057;-69
2023/09/26 09:25:04;;;;;;;11.73;7.70;;;;;;;18.50;100.00;102003.38;5031849;28;20476;-67
2023/09/26 09:27:43;;;;;;;11.48;7.40;;;;;;;18.53;100.00;102000.56;5050093;28;20052;-68
2023/09/26 09:30:12;;;;;;;;;;;;;;;18.42;100.00;102003.75;5034838;28;20384;-68
2023/09/26 09:32:38;;;;;;;;;;;;;;;18.38;100.00;102004.84;5055708;28;19912;-68
2023/09/26 09:35:04;;;;;;;13.50;7.90;;;;;;;18.41;100.00;102010.03;5052426;28;20014;-68
2023/09/26 09:37:29;;;;;;;17.02;8.50;;;;;;;18.41;100.00;102018.03;5067820;28;20103;-68
2023/09/26 09:39:55;;;;;;;16.15;8.60;;;;;;;18.39;100.00;102022.56;5051920;28;20501;-70
2023/09/26 09:42:22;;;;;;;12.68;8.18;;;;;;;18.43;100.00;102012.63;5048917;28;20493;-68
2023/09/26 09:44:47;;;;;;;14.05;8.93;;;;;;;18.40;100.00;102002.09;5048905;28;20430;-69
2023/09/26 09:47:20;;;;;;;16.65;9.63;;;;;;;18.38;100.00;102009.31;5048979;28;20017;-68
2023/09/26 09:49:46;;;;;;;15.05;8.75;;;;;;;18.52;100.00;102006.84;5047650;28;20072;-68
2023/09/26 09:52:12;;;;;;;11.82;9.50;;;;;;;18.60;100.00;101998.44;5067947;28;20086;-69
2023/09/26 09:54:41;;;;;;;13.73;8.65;;;;;;;18.54;100.00;102001.41;5063011;28;20390;-70
2023/09/26 09:57:09;;;;;;;;;;;;;;;18.59;100.00;102007.38;5049337;28;20532;-69
2023/09/26 09:59:36;;;;;;;12.63;9.07;;;;;;;18.66;100.00;102007.97;5059820;28;20397;-69
2023/09/26 10:02:02;;;;;;;16.42;9.32;;;;;;;18.84;100.00;102006.16;5047225;28;20021;-68
2023/09/26 10:04:29;;;;;;;14.70;9.30;;;;;;;18.89;100.00;102004.13;5030860;28;20032;-70
2023/09/26 10:06:55;;;;;;;13.45;9.27;;;;;;;18.98;100.00;102012.59;5047987;28;20025;-71
2023/09/26 10:09:21;;;;;;;12.50;9.48;;;;;;;19.05;100.00;102014.00;5049726;28;20039;-69
2023/09/26 10:11:47;;;;;;;13.73;9.75;;;;;;;18.94;100.00;102010.09;5030082;28;20037;-69
2023/09/26 10:14:21;;;;;;;12.57;8.30;;;;;;;19.23;100.00;102011.38;5049535;28;20033;-68
2023/09/26 10:16:47;;;;;;;14.95;8.93;;;;;;;19.32;100.00;102000.19;5030993;28;20420;-66
2023/09/26 10:19:13;;;;;;;11.80;9.55;;;;;;;19.36;100.00;102004.44;5049115;28;20043;-70
2023/09/26 10:21:40;;;;;;;14.88;9.45;;;;;;;19.51;100.00;101999.22;5054172;28;20021;-68
2023/09/26 10:24:06;;;;;;;15.68;9.48;;;;;;;19.62;100.00;102001.34;5069431;28;20032;-69
2023/09/26 10:26:32;;;;;;;12.25;9.02;;;;;;;19.81;100.00;102006.53;5050617;28;20027;-68
2023/09/26 10:29:10;;;;;;;14.18;9.70;;;;;;;20.04;100.00;102001.72;5069090;28;20020;-70
2023/09/26 10:31:36;;;;;;;11.98;8.63;;;;;;;20.40;100.00;101992.56;5030923;28;20518;-67
2023/09/26 10:34:02;;;;;;;16.13;8.50;;;;;;;20.59;100.00;101986.16;5031045;28;20044;-69
2023/09/26 10:36:28;;;;;;;12.75;7.97;;;;;;;20.73;100.00;101971.94;5031302;28;20033;-69
2023/09/26 10:39:01;;;;;;;11.68;8.00;;;;;;;20.80;100.00;101967.09;5063775;28;20464;-69
2023/09/26 10:41:26;;;;;;;10.70;7.07;;;;;;;20.88;100.00;101969.31;5067984;28;20700;-69
2023/09/26 10:43:52;;;;;;;10.90;6.90;;;;;;;21.06;100.00;101970.03;5068220;28;20031;-68
2023/09/26 10:46:18;;;;;;;10.85;6.90;;;;;;;21.20;100.00;101980.78;5046353;28;20064;-67
2023/09/26 10:48:43;;;;;;;13.18;7.03;;;;;;;21.11;100.00;101986.72;5029285;28;20025;-66
2023/09/26 10:51:09;;;;;;;14.05;7.28;;;;;;;21.32;100.00;101975.63;5039525;28;20024;-68
2023/09/26 10:53:34;;;;;;;12.02;7.05;;;;;;;21.58;100.00;101983.84;5039816;28;20029;-70
2023/09/26 10:56:00;;;;;;;17.55;7.20;;;;;;;21.76;100.00;101972.97;5047331;28;20025;-65
2023/09/26 10:58:26;;;;;;;11.68;6.25;;;;;;;21.93;100.00;101971.88;5020729;28;20095;-68
2023/09/26 11:00:51;;;;;;;7.75;5.95;;;;;;;22.15;96.39;101959.75;5043093;28;20033;-70